Logo
Newest Metar:
CYXE 180100Z 20018G23KT 6SM BLDU FU FEW040 BKN200 20/M06 A2910 RMK SC2CI3 SLP863 DENSITY ALT 3600FT

Last 10 Metars:
CYXE 180009Z 20019G25KT 3SM BLDU SCT031 SCT300 21/M04 A2912 RMK SC3CI1 SLP872 DENSITY ALT 3700FT
CYXE 172333Z 21017G22KT 2SM BLDU FEW045 SCT300 21/00 A2914 RMK BLDU1SC1CI2 SLP879 DENSITY ALT 3600FT
CYXE 172300Z 19015G21KT 3SM BLDU FEW300 21/01 A2917 RMK CI2 SLP887 DENSITY ALT 3700FT
CYXE 172200Z 21023KT 15SM FEW300 22/01 A2923 RMK CI2 PRESFR SLP906 DENSITY ALT 3700FT
CYXE 172100Z 20018G25KT 15SM FEW300 23/02 A2929 RMK CI2 SLP927 DENSITY ALT 3700FT
CYXE 172000Z 22014G23KT 15SM FEW100 BKN300 22/02 A2934 RMK AC1CI6 AC TR SLP947 DENSITY ALT 3500FT
CYXE 171900Z 19014G20KT 15SM BKN300 19/02 A2940 RMK CI6 PRESFR SLP967 DENSITY ALT 3200FT
CYXE 171800Z 20015KT 15SM BKN290 16/02 A2947 RMK CI6 SLP991 DENSITY ALT 2800FT
CYXE 171700Z 19007KT 15SM BKN280 12/03 A2951 RMK CS7 SLP008 DENSITY ALT 2200FT
CYXE 171600Z 21009KT 15SM BKN270 09/02 A2954 RMK CS6 SLP020 DENSITY ALT 1800FT

Click here for Regina (YQR) International Weather